Tiempo atmosférico en la estación meteorológica de Puebla De Obando, Badajoz (392 m.)



Fecha
DESCASC
Temp. máxima en grados centígrados (hora)
DESCASC
Temp. mínima en grados centígrados (hora)
DESCASC
Temp. media en grados centígrados
DESCASC
Racha de viento máxima en m/sg (hora)
DESCASC
Velocidad máxima media en intervalos de 10 minutos(hora)
DESCASC
Precipitaciones diarias en mm
DESCASC
Precipitaciones de 00:00 a 06:00 en mm
DESCASC
Precipitaciones de 06:00 a 12:00 en mm
DESCASC
Precipitaciones de 12:00 a 18:00 en mm
DESCASC
Precipitaciones de 18:00 a 24:00 en mm
DESCASC
10-11-2019 13.6 (12:30) 7.5 (00:00) 10.6 11.94 (11:20) 7.78 (12:20) 0 0 0 0 0
09-11-2019 15.7 (14:00) 3.1 (00:00) 9.4 10.83 (18:10) 7.5 (18:10) 0.4 0 0 0 0.4
08-11-2019 14.4 (15:40) 5.2 (00:00) 9.8 9.72 (11:50) 6.11 (10:20) 0 0 0 0 0
07-11-2019 15.8 (15:50) 8.4 (00:00) 12.1 13.33 (18:20) 8.33 (15:00) 1.2 1.2 0 0 0
06-11-2019 17.1 (14:50) 6.7 (00:00) 11.9 9.44 (15:20) 5.83 (15:20) 0.4 0 0 0 0.4
05-11-2019 17.4 (16:30) 8 (00:00) 12.7 11.67 (13:40) 7.5 (14:20) 0 0 0 0 0
04-11-2019 18 (16:10) 11.1 (00:00) 14.6 14.72 (17:00) 10.28 (17:00) 1.8 0.8 0.2 0.4 0.4
03-11-2019 19.7 (15:20) 13.7 (00:00) 16.7 15.83 (11:20) 11.11 (11:30) 0.4 0.2 0.2 0 0
02-11-2019 18.7 (14:10) 14.2 (00:00) 16.5 11.39 (16:40) 8.06 (16:40) 4 1 0.6 2.4 0
01-11-2019 21.8 (15:00) 15.3 (00:00) 18.5 13.06 (23:59) 7.78 (13:40) 0.2 0 0 0.2 0
31-10-2019 21.8 (13:00) 16 (23:20) 18.9 6.11 (10:40) 4.72 (16:30) 0.6 0 0 0.2 0.4
30-10-2019 20.5 (15:20) 11.2 (00:00) 15.8 6.67 (17:50) 4.17 (18:00) 0.2 0 0 0 0.2
29-10-2019 22.4 (15:20) 13.4 (00:00) 17.9 6.11 (16:20) 3.61 (16:30) 2 0 2 0 0
28-10-2019 20.7 (16:00) 10.8 (00:00) 15.8 7.22 (01:00) 4.72 (00:30) 0.8 0 0 0 0.8
27-10-2019 25.8 (15:10) 9.6 (00:00) 17.7 6.94 (20:40) 4.72 (21:10) 0 0 0 0 0
26-10-2019 25.8 (16:50) 10.2 (00:00) 18 6.67 (13:10) 4.72 (10:50) 0 0 0 0 0
25-10-2019 24.5 (16:20) 7.8 (00:00) 16.2 7.5 (16:00) 5 (11:50) 0 0 0 0 0
24-10-2019 19.8 (17:10) 6.8 (00:00) 13.3 6.39 (15:30) 3.61 (03:00) 0 0 0 0 0
23-10-2019 13.2 (16:10) 9 (00:00) 11.1 8.06 (14:20) 5.56 (14:50) 2.8 0.4 0.2 1.6 0.6
22-10-2019 18.6 (15:50) 8 (00:00) 13.3 9.44 (19:30) 5.56 (19:30) 0 0 0 0 0
21-10-2019 18.7 (15:50) 5.6 (00:00) 12.2 5.28 (16:30) 3.89 (16:30) 0 0 0 0 0
20-10-2019 17.3 (16:50) 8.4 (00:00) 12.8 8.89 (17:30) 5.83 (06:50) 0 0 0 0 0
19-10-2019 19.2 (17:50) 9.9 (00:00) 14.6 14.17 (18:20) 8.61 (18:10) 7.8 0 0.2 2.6 5
18-10-2019 20.6 (16:20) 14.8 (00:00) 17.7 8.89 (14:00) 6.39 (12:20) 0.6 0 0.6 0 0
17-10-2019 17.9 (19:20) 10 (00:00) 13.9 7.5 (16:40) 5.28 (16:40) 2.4 0 1 0 1.4
16-10-2019 19.9 (17:50) 6.5 (00:00) 13.2 8.61 (15:20) 3.89 (14:50) 0 0 0 0 0
15-10-2019 18.3 (15:50) 6.5 (00:00) 12.4 6.67 (01:00) 4.72 (00:40) 0 0 0 0 0
14-10-2019 20.5 (00:20) 9.6 (00:00) 15.1 11.39 (14:40) 7.78 (14:40) 12.4 0.4 0.6 11.4 0

Gráficas

Temp. máximas Temp. mínimas Temp. medias Precipitaciones Rachas de viento máximas Velocidades máximas media en intervalos de 10 minutos

Datos horarios

Fecha y hora oficial Temperatura (ºC) Velocidad del viento (km/h) Dirección del viento Racha (km/h) Dirección de racha Precipitación (mm) Presión (hPa) Tendencia (hPa) Humedad (%)
2019-11-12 23:00:00 12.1 18 Oeste 29 Oeste 0 -- -- 92
2019-11-12 22:00:00 12.1 15 Oeste 26 Oeste 0 -- -- 89
2019-11-12 21:00:00 12.3 18 Oeste 29 Oeste 0 -- -- 84
2019-11-12 20:00:00 13 17 Oeste 31 Oeste 0 -- -- 78
2019-11-12 19:00:00 14.1 22 Oeste 33 Oeste 0 -- -- 68
2019-11-12 18:00:00 14.9 16 Noroeste 28 Noroeste 0 -- -- 59
2019-11-12 17:00:00 16.1 16 Noroeste 27 Oeste 0 -- -- 53
2019-11-12 16:00:00 16.2 18 Noroeste 33 Noroeste 0 -- -- 50
2019-11-12 15:00:00 15.7 22 Noroeste 36 Noroeste 0 -- -- 48
2019-11-12 14:00:00 15.3 22 Noroeste 33 Noroeste 0 -- -- 49
2019-11-12 13:00:00 14 21 Norte 33 Noroeste 0 -- -- 51
2019-11-12 12:00:00 13.3 20 Noroeste 37 Norte 0 -- -- 52
2019-11-12 11:00:00 12 14 Norte 25 Noroeste 0 -- -- 56
2019-11-12 10:00:00 9.9 9 Noroeste 17 Noroeste 0 -- -- 64
2019-11-12 09:00:00 7.8 10 Noroeste 26 Noroeste 0 -- -- 74
2019-11-12 08:00:00 7.6 17 Noroeste 27 Noroeste 0 -- -- 75
2019-11-12 07:00:00 7.8 17 Noroeste 24 Norte 0 -- -- 76
2019-11-12 06:00:00 8.1 14 Norte 19 Norte 0 -- -- 77
2019-11-12 05:00:00 8.8 12 Norte 22 Norte 0 -- -- 75
2019-11-12 04:00:00 9.4 16 Norte 28 Norte 0 -- -- 75
2019-11-12 03:00:00 9.8 15 Norte 29 Norte 0 -- -- 74
2019-11-12 02:00:00 10.2 19 Norte 31 Norte 0 -- -- 78
2019-11-12 01:00:00 10.6 16 Norte 28 Norte 0 -- -- 80
2019-11-12 00:00:00 11 17 Norte 24 Norte 0 -- -- 83
2019-11-11 23:00:00 11.7 15 Norte 27 Noroeste 0 -- -- 80
2019-11-11 22:00:00 12.2 17 Noroeste 27 Noroeste 0 -- -- 80
2019-11-11 21:00:00 12.6 15 Noroeste 24 Noroeste 0 -- -- 79
2019-11-11 20:00:00 13.2 13 Noroeste 18 Noroeste 0 -- -- 77
2019-11-11 19:00:00 15 10 Oeste 25 Noroeste 0 -- -- 73
2019-11-11 18:00:00 17 16 Noroeste 24 Noroeste 0 -- -- 66
2019-11-11 17:00:00 17.9 15 Noroeste 26 Norte 0 -- -- 70
2019-11-11 16:00:00 17.2 5 Noroeste 22 Oeste 0 -- -- 81
2019-11-11 15:00:00 17.4 13 Oeste 22 Oeste 0 -- -- 80
2019-11-11 14:00:00 15.4 11 Oeste 17 Oeste 0 -- -- 89
2019-11-11 13:00:00 14.3 12 Oeste 21 Oeste 0 -- -- 95
2019-11-11 12:00:00 12.5 10 Oeste 14 Oeste 0 -- -- 99
2019-11-11 11:00:00 11.3 7 Oeste 14 Oeste 0 -- -- 100
2019-11-11 10:00:00 10.2 4 Sudoeste 15 Sudoeste 0 -- -- 100
2019-11-11 09:00:00 9.7 3 Sudoeste 9 Sudoeste 0 -- -- 100
2019-11-11 08:00:00 9.4 3 Sudoeste 9 Sudoeste 0 -- -- 100
2019-11-11 07:00:00 9.3 4 Oeste 9 Sudoeste 0.2 -- -- 100
2019-11-11 06:00:00 9.1 0 Calma 6 Oeste 0 -- -- 100
2019-11-11 05:00:00 9.2 4 Sudoeste 10 Oeste 0.2 -- -- 100
2019-11-11 04:00:00 9 7 Oeste 14 Oeste 0 -- -- 100
2019-11-11 03:00:00 8.9 9 Oeste 14 Oeste 0 -- -- 100
2019-11-11 02:00:00 9 5 Oeste 8 Sudoeste 0.2 -- -- 97
2019-11-11 01:00:00 9.5 3 Sudoeste 9 Oeste 0 -- -- 92
2019-11-11 00:00:00 9.8 6 Oeste 14 Noroeste 0 -- -- 87
2019-11-10 23:00:00 9.9 11 Noroeste 18 Noroeste 0 -- -- 83
2019-11-10 22:00:00 10 12 Noroeste 25 Noroeste 0 -- -- 81
2019-11-10 21:00:00 10.3 17 Noroeste 37 Noroeste 0 -- -- 77
2019-11-10 20:00:00 10.5 20 Noroeste 30 Noroeste 0 -- -- 75
2019-11-10 19:00:00 10.8 20 Noroeste 30 Noroeste 0 -- -- 72
2019-11-10 18:00:00 11.2 16 Noroeste 36 Noroeste 0 -- -- 69
2019-11-10 17:00:00 11.6 19 Noroeste 33 Noroeste 0 -- -- 68
2019-11-10 16:00:00 11.6 19 Noroeste 33 Noroeste 0 -- -- 68
2019-11-10 15:00:00 12.7 14 Norte 28 Norte 0 -- -- 64
2019-11-10 14:00:00 12.8 20 Norte 41 Norte 0 -- -- 56
2019-11-10 13:00:00 13 25 Norte 43 Noroeste 0 -- -- 55
2019-11-10 12:00:00 12.6 25 Norte 43 Norte 0 -- -- 56
2019-11-10 11:00:00 11.5 23 Norte 39 Norte 0 -- -- 61
2019-11-10 10:00:00 10.2 17 Noroeste 27 Noroeste 0 -- -- 68
2019-11-10 09:00:00 8.7 11 Noroeste 25 Noroeste 0 -- -- 77
2019-11-10 08:00:00 8.3 18 Noroeste 27 Noroeste 0 -- -- 79
2019-11-10 07:00:00 7.5 15 Noroeste 23 Noroeste 0 -- -- 88
2019-11-10 06:00:00 8 16 Noroeste 25 Noroeste 0 -- -- 89
2019-11-10 05:00:00 8.2 16 Noroeste 21 Noroeste 0 -- -- 88
2019-11-10 04:00:00 8.3 15 Noroeste 23 Noroeste 0 -- -- 88
2019-11-10 03:00:00 7.6 13 Oeste 17 Oeste 0 -- -- 92
2019-11-10 02:00:00 8.7 14 Noroeste 25 Noroeste 0 -- -- 88
2019-11-10 01:00:00 9.3 18 Noroeste 27 Noroeste 0 -- -- 88
2019-11-10 00:00:00 9.2 14 Noroeste 24 Noroeste 0 -- -- 94
2019-11-09 23:00:00 10.6 16 Noroeste 27 Noroeste 0 -- -- 94
2019-11-09 22:00:00 11.3 6 Noroeste 14 Noroeste 0 -- -- 98
2019-11-09 21:00:00 11.8 9 Noroeste 31 Oeste 0 -- -- 98
2019-11-09 20:00:00 12.2 23 Oeste 36 Oeste 0 -- -- 99
2019-11-09 19:00:00 12 17 Oeste 39 Oeste 0.4 -- -- 97
2019-11-09 18:00:00 13.6 26 Oeste 36 Oeste 0 -- -- 81
2019-11-09 17:00:00 13.7 19 Oeste 32 Oeste 0 -- -- 81
2019-11-09 16:00:00 14.2 21 Oeste 35 Oeste 0 -- -- 72
2019-11-09 15:00:00 14.1 22 Oeste 36 Oeste 0 -- -- 69
2019-11-09 14:00:00 15.7 18 Oeste 28 Oeste 0 -- -- 61
2019-11-09 13:00:00 14.2 14 Noroeste 27 Noroeste 0 -- -- 61
2019-11-09 12:00:00 12.9 15 Noroeste 24 Noroeste 0 -- -- 62
2019-11-09 11:00:00 11.5 9 Oeste 15 Noroeste 0 -- -- 69
2019-11-09 10:00:00 8.6 13 Oeste 15 Oeste 0 -- -- 78
2019-11-09 09:00:00 5.4 5 Noroeste 9 Oeste 0 -- -- 90
2019-11-09 08:00:00 3.1 6 Oeste 12 Oeste 0 -- -- 94
2019-11-09 07:00:00 3.6 8 Oeste 10 Oeste 0 -- -- 93
2019-11-09 06:00:00 4.2 4 Noroeste 13 Noroeste 0 -- -- 90
2019-11-09 05:00:00 4.4 3 Noroeste 14 Norte 0 -- -- 89
2019-11-09 04:00:00 6 5 Norte 25 Noroeste 0 -- -- 80
2019-11-09 03:00:00 7.7 20 Noroeste 28 Noroeste 0 -- -- 74
2019-11-09 02:00:00 4.3 5 Nordeste 14 Noroeste 0 -- -- 90
2019-11-09 01:00:00 5.9 10 Noroeste 16 Noroeste 0 -- -- 83
2019-11-09 00:00:00 6.3 6 Noroeste 14 Noroeste 0 -- -- 79
2019-11-08 23:00:00 7.2 11 Noroeste 19 Noroeste 0 -- -- 75
2019-11-08 22:00:00 8 12 Noroeste 19 Noroeste 0 -- -- 70
2019-11-08 21:00:00 9.1 13 Noroeste 25 Noroeste 0 -- -- 64
2019-11-08 20:00:00 9.8 12 Noroeste 28 Noroeste 0 -- -- 62
2019-11-08 19:00:00 11 15 Noroeste 22 Noroeste 0 -- -- 55
2019-11-08 18:00:00 12.9 12 Norte 22 Norte 0 -- -- 45
2019-11-08 17:00:00 14.2 15 Noroeste 30 Noroeste 0 -- -- 42
2019-11-08 16:00:00 14.3 15 Norte 28 Norte 0 -- -- 43
2019-11-08 15:00:00 14 21 Norte 33 Noroeste 0 -- -- 45
2019-11-08 14:00:00 13.4 17 Noroeste 31 Norte 0 -- -- 48
2019-11-08 13:00:00 12.7 22 Norte 34 Norte 0 -- -- 50
2019-11-08 12:00:00 11.5 19 Norte 35 Norte 0 -- -- 55
2019-11-08 11:00:00 10.1 16 Noroeste 31 Noroeste 0 -- -- 65
2019-11-08 10:00:00 8.1 15 Noroeste 24 Noroeste 0 -- -- 79
2019-11-08 09:00:00 6 10 Noroeste 15 Oeste 0 -- -- 90
2019-11-08 08:00:00 5.4 12 Noroeste 27 Noroeste 0 -- -- 92
2019-11-08 07:00:00 5.7 15 Noroeste 23 Noroeste 0 -- -- 89
2019-11-08 06:00:00 5.5 11 Noroeste 18 Noroeste 0 -- -- 93
2019-11-08 05:00:00 5.6 10 Noroeste 12 Noroeste 0 -- -- 94
2019-11-08 04:00:00 6.2 9 Noroeste 16 Oeste 0 -- -- 92
2019-11-08 03:00:00 7.3 11 Noroeste 14 Oeste 0 -- -- 92
2019-11-08 02:00:00 6.9 7 Noroeste 16 Noroeste 0 -- -- 91
2019-11-08 01:00:00 8.1 12 Noroeste 18 Oeste 0 -- -- 88
2019-11-08 00:00:00 8.4 11 Noroeste 17 Oeste 0 -- -- 85
2019-11-07 23:00:00 9.1 6 Oeste 16 Oeste 0 -- -- 80
2019-11-07 22:00:00 9.2 7 Noroeste 19 Noroeste 0 -- -- 78
2019-11-07 21:00:00 9.1 8 Oeste 15 Noroeste 0 -- -- 75
2019-11-07 20:00:00 10.4 10 Noroeste 33 Noroeste 0 -- -- 66
2019-11-07 19:00:00 11.8 24 Noroeste 48 Noroeste 0 -- -- 57
2019-11-07 18:00:00 13.3 24 Noroeste 44 Noroeste 0 -- -- 54
2019-11-07 17:00:00 14.5 27 Noroeste 45 Noroeste 0 -- -- 47
2019-11-07 16:00:00 15.3 28 Noroeste 41 Noroeste 0 -- -- 47
2019-11-07 15:00:00 15.4 30 Noroeste 44 Noroeste 0 -- -- 47
2019-11-07 14:00:00 15.3 26 Noroeste 40 Noroeste 0 -- -- 49
2019-11-07 13:00:00 14.4 20 Noroeste 32 Noroeste 0 -- -- 61
2019-11-07 12:00:00 13.6 22 Norte 40 Norte 0 -- -- 63
2019-11-07 11:00:00 12.4 28 Norte 41 Norte 0 -- -- 64
2019-11-07 10:00:00 11.5 22 Noroeste 35 Norte 0 -- -- 77
2019-11-07 09:00:00 10.3 21 Noroeste 33 Norte 0 -- -- 85
2019-11-07 08:00:00 10.7 16 Noroeste 26 Noroeste 0 -- -- 92
2019-11-07 07:00:00 12.3 15 Noroeste 27 Noroeste 0 -- -- 100
2019-11-07 06:00:00 12.6 8 Noroeste 19 Oeste 0 -- -- 100
2019-11-07 05:00:00 12.5 9 Oeste 18 Oeste 0 -- -- 100
2019-11-07 04:00:00 12.1 12 Sudoeste 28 Oeste 0 -- -- 100
2019-11-07 03:00:00 11.8 17 Sudoeste 26 Oeste 0 -- -- 100
2019-11-07 02:00:00 11.7 17 Sudoeste 33 Sudoeste 0.2 -- -- 100
2019-11-07 01:00:00 11.6 16 Sudoeste 31 Oeste 1 -- -- 100
2019-11-07 00:00:00 11.7 17 Sudoeste 26 Sudoeste 0.4 -- -- 98
2019-11-06 23:00:00 12.2 14 Oeste 27 Sudoeste 0 -- -- 94
2019-11-06 22:00:00 12.4 16 Oeste 25 Oeste 0 -- -- 93
2019-11-06 21:00:00 12.6 17 Oeste 28 Oeste 0 -- -- 91
2019-11-06 20:00:00 12.6 15 Oeste 27 Oeste 0 -- -- 88
2019-11-06 19:00:00 13.9 18 Oeste 24 Oeste 0 -- -- 78
2019-11-06 18:00:00 14.7 13 Oeste 24 Noroeste 0 -- -- 69
2019-11-06 17:00:00 15.5 17 Noroeste 31 Noroeste 0 -- -- 62
2019-11-06 16:00:00 15.9 16 Noroeste 34 Noroeste 0 -- -- 62
2019-11-06 15:00:00 16.5 20 Noroeste 30 Noroeste 0 -- -- 55
2019-11-06 14:00:00 16.5 14 Noroeste 25 Noroeste 0 -- -- 55
2019-11-06 13:00:00 16.2 10 Noroeste 26 Norte 0 -- -- 55
2019-11-06 12:00:00 14.8 13 Noroeste 26 Noroeste 0 -- -- 59
2019-11-06 11:00:00 13 13 Noroeste 21 Noroeste 0 -- -- 71
2019-11-06 10:00:00 10.9 12 Oeste 18 Oeste 0 -- -- 85
2019-11-06 09:00:00 8 11 Noroeste 19 Noroeste 0 -- -- 95
2019-11-06 08:00:00 7.6 9 Noroeste 17 Noroeste 0 -- -- 96
2019-11-06 07:00:00 6.9 9 Noroeste 16 Noroeste 0 -- -- 96
2019-11-06 06:00:00 6.9 11 Noroeste 16 Noroeste 0 -- -- 99
2019-11-06 05:00:00 7.1 8 Noroeste 16 Noroeste 0 -- -- 97
2019-11-06 04:00:00 7.5 11 Noroeste 16 Noroeste 0 -- -- 96
2019-11-06 03:00:00 7.8 10 Oeste 15 Oeste 0 -- -- 94
2019-11-06 02:00:00 8.1 14 Noroeste 18 Noroeste 0 -- -- 93
2019-11-06 01:00:00 8.3 12 Noroeste 15 Noroeste 0 -- -- 93
2019-11-06 00:00:00 8.3 9 Noroeste 12 Oeste 0 -- -- 92
2019-11-05 23:00:00 9.1 7 Oeste 13 Noroeste 0 -- -- 89
2019-11-05 22:00:00 10.4 11 Noroeste 24 Noroeste 0 -- -- 83
2019-11-05 21:00:00 11.6 16 Noroeste 28 Noroeste 0 -- -- 77
2019-11-05 20:00:00 12.6 15 Noroeste 29 Noroeste 0 -- -- 72
2019-11-05 19:00:00 14 19 Noroeste 35 Noroeste 0 -- -- 65
2019-11-05 18:00:00 15.5 24 Noroeste 40 Noroeste 0 -- -- 59
2019-11-05 17:00:00 16.9 24 Noroeste 41 Noroeste 0 -- -- 55
2019-11-05 16:00:00 17.2 22 Noroeste 38 Noroeste 0 -- -- 57
2019-11-05 15:00:00 17.1 25 Noroeste 42 Noroeste 0 -- -- 59
2019-11-05 14:00:00 16.7 24 Noroeste 42 Noroeste 0 -- -- 60
2019-11-05 13:00:00 15.3 22 Noroeste 35 Noroeste 0 -- -- 70
2019-11-05 12:00:00 15.1 23 Oeste 34 Oeste 0 -- -- 77
2019-11-05 11:00:00 13.1 22 Oeste 33 Oeste 0 -- -- 86
2019-11-05 10:00:00 11.1 20 Oeste 34 Oeste 0 -- -- 95
2019-11-05 09:00:00 9.3 17 Oeste 28 Oeste 0 -- -- 100
2019-11-05 08:00:00 8.5 12 Oeste 22 Oeste 0 -- -- 100
2019-11-05 07:00:00 8.1 6 Noroeste 15 Oeste 0 -- -- 100
2019-11-05 06:00:00 8.3 10 Noroeste 22 Oeste 0 -- -- 99
2019-11-05 05:00:00 8.8 13 Oeste 28 Oeste 0 -- -- 97
2019-11-05 04:00:00 8.7 10 Noroeste 17 Oeste 0 -- -- 97
2019-11-05 03:00:00 8.9 4 Noroeste 16 Oeste 0 -- -- 96
2019-11-05 02:00:00 9.8 8 Noroeste 30 Noroeste 0 -- -- 95
2019-11-05 01:00:00 10.4 14 Noroeste 26 Oeste 0 -- -- 94
2019-11-05 00:00:00 11.1 15 Oeste 29 Oeste 0 -- -- 91
2019-11-04 23:00:00 11.6 14 Oeste 24 Oeste 0 -- -- 90
2019-11-04 22:00:00 12.4 10 Noroeste 31 Oeste 0 -- -- 96
2019-11-04 21:00:00 13 26 Oeste 43 Oeste 0.2 -- -- 95
2019-11-04 20:00:00 13.1 18 Oeste 31 Oeste 0 -- -- 96
2019-11-04 19:00:00 13.7 21 Oeste 49 Oeste 0.2 -- -- 95
2019-11-04 18:00:00 14.3 27 Oeste 42 Oeste 0.2 -- -- 97
2019-11-04 17:00:00 16.7 37 Oeste 53 Oeste 0 -- -- 76
2019-11-04 16:00:00 17.7 30 Oeste 50 Oeste 0 -- -- 68
2019-11-04 15:00:00 17.4 30 Oeste 46 Oeste 0 -- -- 68
2019-11-04 14:00:00 17.3 22 Oeste 41 Oeste 0 -- -- 73
2019-11-04 13:00:00 16.9 29 Oeste 52 Oeste 0.2 -- -- 77
2019-11-04 12:00:00 16 21 Oeste 34 Oeste 0 -- -- 85
2019-11-04 11:00:00 14.7 21 Sudoeste 43 Sudoeste 0 -- -- 94
2019-11-04 10:00:00 14.2 19 Oeste 37 Sudoeste 0 -- -- 97
2019-11-04 09:00:00 13.7 17 Sudoeste 30 Sudoeste 0.2 -- -- 99
2019-11-04 08:00:00 13.5 18 Sudoeste 27 Sudoeste 0 -- -- 99
2019-11-04 07:00:00 13.3 16 Oeste 30 Oeste 0 -- -- 99
2019-11-04 06:00:00 13.3 12 Oeste 36 Oeste 0 -- -- 100
2019-11-04 05:00:00 13.3 7 Oeste 26 Sudoeste 0 -- -- 100
2019-11-04 04:00:00 13.7 14 Oeste 26 Oeste 0.8 -- -- 99
2019-11-04 03:00:00 14 21 Oeste 31 Sudoeste 0 -- -- 98
2019-11-04 02:00:00 14.1 16 Sudoeste 29 Sudoeste 0 -- -- 97
2019-11-04 01:00:00 14 14 Sudoeste 30 Sudoeste 0 -- -- 97
2019-11-04 00:00:00 14 18 Sudoeste 27 Sudoeste 0 -- -- 95
2019-11-03 23:00:00 14.2 10 Oeste 25 Oeste 0 -- -- 93
2019-11-03 22:00:00 15 17 Oeste 27 Oeste 0 -- -- 90
2019-11-03 21:00:00 15.3 17 Oeste 30 Oeste 0 -- -- 85
2019-11-03 20:00:00 14.9 19 Oeste 35 Oeste 0 -- -- 83
2019-11-03 19:00:00 15.7 21 Oeste 45 Oeste 0 -- -- 79
2019-11-03 18:00:00 16.8 28 Oeste 39 Oeste 0 -- -- 73
2019-11-03 17:00:00 18.4 27 Oeste 36 Oeste 0 -- -- 65
2019-11-03 16:00:00 19.6 24 Oeste 42 Noroeste 0 -- -- 57
2019-11-03 15:00:00 19.6 26 Noroeste 43 Noroeste 0 -- -- 56
2019-11-03 14:00:00 18.3 26 Noroeste 48 Oeste 0 -- -- 62
2019-11-03 13:00:00 18 32 Noroeste 50 Noroeste 0 -- -- 64
2019-11-03 12:00:00 16.5 29 Noroeste 57 Oeste 0 -- -- 72
2019-11-03 11:00:00 16.5 31 Noroeste 49 Oeste 0 -- -- 79
2019-11-03 10:00:00 15.6 25 Oeste 36 Oeste 0 -- -- 94
2019-11-03 09:00:00 14.1 22 Oeste 36 Oeste 0.2 -- -- 100
2019-11-03 08:00:00 13.9 26 Oeste 52 Oeste 0 -- -- 100
2019-11-03 07:00:00 14.1 29 Oeste 49 Oeste 0 -- -- 96
2019-11-03 06:00:00 14.2 28 Oeste 44 Oeste 0 -- -- 94
2019-11-03 05:00:00 14 29 Oeste 45 Oeste 0 -- -- 95
2019-11-03 04:00:00 13.8 25 Oeste 39 Oeste 0 -- -- 96
2019-11-03 03:00:00 13.7 22 Oeste 36 Oeste 0.2 -- -- 98
2019-11-03 02:00:00 14.2 21 Oeste 37 Oeste 0 -- -- 93
2019-11-03 01:00:00 14.3 21 Oeste 31 Oeste 0 -- -- 94
2019-11-03 00:00:00 14.3 16 Oeste 28 Oeste 0 -- -- 93
2019-11-02 23:00:00 14.4 16 Oeste 32 Oeste 0 -- -- 91
2019-11-02 22:00:00 14.6 22 Oeste 29 Oeste 0 -- -- 92
2019-11-02 21:00:00 15.1 15 Oeste 26 Oeste 0 -- -- 90
2019-11-02 20:00:00 15.4 18 Oeste 32 Oeste 0 -- -- 86
2019-11-02 19:00:00 15.9 19 Oeste 32 Oeste 0 -- -- 85
2019-11-02 18:00:00 16.7 20 Oeste 31 Oeste 0 -- -- 88
2019-11-02 17:00:00 16.5 15 Oeste 41 Oeste 0.4 -- -- 95
2019-11-02 16:00:00 17.8 18 Oeste 30 Oeste 0 -- -- 93
2019-11-02 15:00:00 17.2 17 Oeste 38 Oeste 1.2 -- -- 97
2019-11-02 14:00:00 18.3 21 Oeste 34 Sudoeste 0.6 -- -- 91
2019-11-02 13:00:00 17.2 19 Oeste 37 Oeste 0.2 -- -- 93
2019-11-02 12:00:00 17.5 20 Oeste 33 Oeste 0.6 -- -- 91
2019-11-02 11:00:00 17.3 19 Oeste 34 Oeste 0 -- -- 93
2019-11-02 10:00:00 16.8 21 Oeste 31 Oeste 0 -- -- 95
2019-11-02 09:00:00 16.1 19 Oeste 30 Sudoeste 0 -- -- 98
2019-11-02 08:00:00 16.1 17 Oeste 32 Sudoeste 0 -- -- 98
2019-11-02 07:00:00 16.3 17 Oeste 33 Oeste 0 -- -- 100
2019-11-02 06:00:00 16.3 21 Oeste 37 Sudoeste 0 -- -- 99
2019-11-02 05:00:00 16.5 24 Oeste 39 Oeste 0 -- -- 98
2019-11-02 04:00:00 16.3 22 Sudoeste 33 Sudoeste 1 -- -- 100
2019-11-02 03:00:00 16.2 16 Sudoeste 26 Sudoeste 0 -- -- 99
2019-11-02 02:00:00 16.4 17 Oeste 39 Sudoeste 0 -- -- 97
2019-11-02 01:00:00 16.6 23 Sudoeste 38 Sudoeste 0 -- -- 97
2019-11-02 00:00:00 16.8 26 Oeste 47 Oeste 0 -- -- 97
2019-11-01 23:00:00 17 21 Oeste 37 Oeste 0 -- -- 95
2019-11-01 22:00:00 17.3 21 Oeste 33 Sudoeste 0 -- -- 94
2019-11-01 21:00:00 17.8 21 Oeste 32 Oeste 0 -- -- 94
2019-11-01 20:00:00 18.3 17 Oeste 33 Oeste 0 -- -- 88
2019-11-01 19:00:00 19.1 21 Oeste 37 Oeste 0 -- -- 83
2019-11-01 18:00:00 20.1 24 Oeste 44 Oeste 0 -- -- 77
2019-11-01 17:00:00 21 22 Oeste 43 Noroeste 0.2 -- -- 74
2019-11-01 16:00:00 21.5 22 Oeste 39 Oeste 0 -- -- 73
2019-11-01 15:00:00 21.8 26 Oeste 39 Oeste 0 -- -- 72
2019-11-01 14:00:00 21 26 Oeste 40 Oeste 0 -- -- 78
2019-11-01 13:00:00 19.9 24 Oeste 37 Oeste 0 -- -- 86
2019-11-01 12:00:00 19.9 19 Oeste 27 Oeste 0 -- -- 88
2019-11-01 11:00:00 19.2 18 Oeste 31 Oeste 0 -- -- 93
2019-11-01 10:00:00 18.5 18 Oeste 25 Oeste 0 -- -- 98
2019-11-01 09:00:00 16.9 9 Oeste 21 Oeste 0 -- -- 100
2019-11-01 08:00:00 16.4 10 Oeste 19 Oeste 0 -- -- 100
2019-11-01 07:00:00 16.3 6 Oeste 17 Oeste 0 -- -- 100
2019-11-01 06:00:00 16.6 12 Oeste 17 Oeste 0 -- -- 100
2019-11-01 05:00:00 16.8 10 Oeste 15 Oeste 0 -- -- 100
2019-11-01 04:00:00 16.8 7 Oeste 10 Oeste 0 -- -- 100
2019-11-01 03:00:00 16.1 4 Noroeste 9 Noroeste 0 -- -- 100
2019-11-01 02:00:00 15.3 6 Noroeste 17 Noroeste 0 -- -- 100
2019-11-01 01:00:00 15.7 11 Noroeste 15 Noroeste 0 -- -- 100
2019-11-01 00:00:00 16 11 Noroeste 18 Noroeste 0.2 -- -- 99
2019-10-31 23:00:00 16.1 10 Noroeste 17 Oeste 0 -- -- 100
2019-10-31 22:00:00 16.3 10 Noroeste 13 Oeste 0 -- -- 100
2019-10-31 21:00:00 17.1 9 Oeste 11 Oeste 0 -- -- 100
2019-10-31 20:00:00 17.5 6 Noroeste 13 Noroeste 0 -- -- 100
2019-10-31 19:00:00 18.2 8 Noroeste 18 Noroeste 0.2 -- -- 99
2019-10-31 18:00:00 19.6 12 Oeste 18 Oeste 0.2 -- -- 94
2019-10-31 17:00:00 20.7 15 Oeste 22 Oeste 0 -- -- 84
2019-10-31 16:00:00 20.5 14 Oeste 21 Oeste 0 -- -- 81
2019-10-31 15:00:00 21 13 Oeste 20 Oeste 0 -- -- 75
2019-10-31 14:00:00 21.2 12 Oeste 21 Noroeste 0 -- -- 75
2019-10-31 13:00:00 21.8 12 Oeste 22 Oeste 0 -- -- 70
2019-10-31 12:00:00 21.2 16 Noroeste 22 Noroeste 0 -- -- 73
2019-10-31 11:00:00 19.6 14 Oeste 22 Oeste 0 -- -- 85
2019-10-31 10:00:00 17.6 12 Oeste 16 Oeste 0 -- -- 97
2019-10-31 09:00:00 16.8 9 Oeste 13 Oeste 0 -- -- 100
2019-10-31 08:00:00 16.1 5 Oeste 9 Oeste 0 -- -- 100
2019-10-31 07:00:00 16.3 4 Noroeste 8 Noroeste 0 -- -- 100
2019-10-31 06:00:00 16.5 4 Oeste 10 Oeste 0 -- -- 100
2019-10-31 05:00:00 16.4 6 Oeste 10 Oeste 0 -- -- 100
2019-10-31 04:00:00 16.7 2 Noroeste 13 Oeste 0 -- -- 100
2019-10-31 03:00:00 17 3 Noroeste 8 Oeste 0 -- -- 100
2019-10-31 02:00:00 17.5 2 Oeste 12 Oeste 0 -- -- 100
2019-10-31 01:00:00 17.5 10 Oeste 17 Oeste 0 -- -- 100
2019-10-31 00:00:00 17.4 9 Oeste 19 Sudoeste 0 -- -- 100
2019-10-30 23:00:00 17.3 13 Oeste 18 Oeste 0 -- -- 99
2019-10-30 22:00:00 17.4 7 Oeste 11 Oeste 0 -- -- 99
2019-10-30 21:00:00 17.3 6 Oeste 17 Oeste 0 -- -- 96
2019-10-30 20:00:00 18.3 7 Oeste 19 Sudoeste 0.2 -- -- 87
2019-10-30 19:00:00 19.1 11 Sudoeste 21 Sudoeste 0 -- -- 78
2019-10-30 18:00:00 19.6 15 Sudoeste 24 Sudoeste 0 -- -- 76
2019-10-30 17:00:00 20 12 Oeste 20 Sudoeste 0 -- -- 77
2019-10-30 16:00:00 20.4 12 Sudoeste 22 Oeste 0 -- -- 76
2019-10-30 15:00:00 20 14 Oeste 20 Oeste 0 -- -- 77
2019-10-30 14:00:00 20.2 12 Oeste 19 Oeste 0 -- -- 77
2019-10-30 13:00:00 18.7 5 Sudoeste 12 Sudoeste 0 -- -- 84
2019-10-30 12:00:00 18.6 5 Sur 10 Sudoeste 0 -- -- 82
2019-10-30 11:00:00 18.4 4 Sur 10 Sudeste 0 -- -- 80
2019-10-30 10:00:00 16.7 6 Sudeste 8 Sudeste 0 -- -- 90
2019-10-30 09:00:00 13.4 2 Sudeste 6 Este 0 -- -- 100
2019-10-30 08:00:00 11.5 0 Calma 4 Sudeste 0 -- -- 100
2019-10-30 07:00:00 11.6 0 Calma 3 Sur 0 -- -- 100
2019-10-30 06:00:00 11.8 0 Calma 3 Sudeste 0 -- -- 100
2019-10-30 05:00:00 12.3 0 Calma 3 Sudeste 0 -- -- 99
2019-10-30 04:00:00 13 2 Sur 5 Oeste 0 -- -- 96
2019-10-30 03:00:00 13.9 4 Oeste 8 Oeste 0 -- -- 95
2019-10-30 02:00:00 15.1 8 Oeste 10 Oeste 0 -- -- 91
2019-10-30 01:00:00 13.7 0 Calma -- -- 0 -- -- 96
2019-10-30 00:00:00 13.6 0 Calma 2 Noroeste 0 -- -- 97
2019-10-29 23:00:00 13.6 0 Calma 2 Oeste 0 -- -- 96
2019-10-29 22:00:00 13.9 0 Calma 3 Noroeste 0 -- -- 94
2019-10-29 21:00:00 14.7 2 Oeste 4 Sudoeste 0 -- -- 93
2019-10-29 20:00:00 16.7 2 Oeste -- -- 0 -- -- 85
2019-10-29 19:00:00 18.6 6 Oeste 9 Noroeste 0 -- -- 79
2019-10-29 18:00:00 19.7 6 Oeste 15 Noroeste 0 -- -- 72
2019-10-29 17:00:00 20.7 11 Noroeste 22 Oeste 0 -- -- 63
2019-10-29 16:00:00 21.5 5 Oeste 18 Oeste 0 -- -- 63
2019-10-29 15:00:00 21.7 10 Noroeste 17 Oeste 0 -- -- 61
2019-10-29 14:00:00 21.3 8 Oeste 17 Oeste 0 -- -- 64
2019-10-29 13:00:00 19.8 8 Noroeste 16 Oeste 0 -- -- 76
2019-10-29 12:00:00 18.5 4 Oeste 10 Oeste 0 -- -- 84
2019-10-29 11:00:00 17.2 5 Noroeste 12 Noroeste 2 -- -- 93
2019-10-29 10:00:00 17.3 3 Oeste 9 Oeste 0 -- -- 92
2019-10-29 09:00:00 16.4 2 Oeste 8 Oeste 0 -- -- 98
2019-10-29 08:00:00 15.6 5 Sudoeste 9 Oeste 0 -- -- 99
2019-10-29 07:00:00 15.9 3 Oeste 6 Oeste 0 -- -- 99
2019-10-29 06:00:00 15.8 5 Oeste 8 Sudoeste 0 -- -- 99
2019-10-29 05:00:00 16.1 5 Noroeste 12 Oeste 0 -- -- 100
2019-10-29 04:00:00 15.9 8 Oeste 14 Oeste 0 -- -- 100
2019-10-29 03:00:00 16 8 Oeste 12 Oeste 0 -- -- 100
2019-10-29 02:00:00 16.1 7 Oeste 14 Oeste 0 -- -- 99
2019-10-29 01:00:00 16.1 9 Oeste 13 Oeste 0 -- -- 98
2019-10-29 00:00:00 16.2 5 Oeste 13 Oeste 0.8 -- -- 98
2019-10-28 23:00:00 16.6 9 Oeste 17 Oeste 0 -- -- 95
2019-10-28 22:00:00 17.2 8 Oeste 10 Oeste 0 -- -- 87
2019-10-28 21:00:00 17.4 0 Calma 4 Sudoeste 0 -- -- 87
2019-10-28 20:00:00 17.8 3 Oeste -- -- 0 -- -- 84
2019-10-28 19:00:00 18.2 9 Oeste 14 Oeste 0 -- -- 82
2019-10-28 18:00:00 19.3 8 Sudoeste 13 Oeste 0 -- -- 72
2019-10-28 17:00:00 20.3 6 Sudoeste 13 Oeste 0 -- -- 68
2019-10-28 16:00:00 20.7 2 Oeste 14 Oeste 0 -- -- 65
2019-10-28 15:00:00 19.7 4 Sudoeste 13 Oeste 0 -- -- 68
2019-10-28 14:00:00 18.9 5 Oeste 17 Oeste 0 -- -- 72
2019-10-28 13:00:00 17.9 12 Sudoeste 20 Sudoeste 0 -- -- 75
2019-10-28 12:00:00 16.6 6 Sudoeste 14 Sudoeste 0 -- -- 87
2019-10-28 11:00:00 16.3 8 Sur 11 Sur 0 -- -- 90
2019-10-28 10:00:00 15.5 5 Sur 12 Sudoeste 0 -- -- 96
2019-10-28 09:00:00 13.2 0 Calma 4 Sudoeste 0 -- -- 100
2019-10-28 08:00:00 11.6 0 Calma 5 Sur 0 -- -- 100
2019-10-28 07:00:00 11.3 3 Sudeste 5 Sur 0 -- -- 99
2019-10-28 06:00:00 11.5 5 Sudeste 7 Sudeste 0 -- -- 98
2019-10-28 05:00:00 12.6 0 Calma 4 Noroeste 0 -- -- 96
2019-10-28 04:00:00 13.3 2 Noroeste 8 Oeste 0 -- -- 94
2019-10-28 03:00:00 15.3 4 Oeste 23 Oeste 0 -- -- 89
2019-10-28 02:00:00 16.2 15 Oeste 24 Sudoeste 0 -- -- 87
2019-10-28 01:00:00 16.9 16 Sudoeste 26 Sudoeste 0 -- -- 82
2019-10-28 00:00:00 17.6 13 Oeste 19 Oeste 0 -- -- 78
2019-10-27 23:00:00 18.2 13 Oeste 19 Oeste 0 -- -- 75
2019-10-27 22:00:00 18.8 15 Oeste 25 Oeste 0 -- -- 71
2019-10-27 21:00:00 19.4 15 Oeste 25 Oeste 0 -- -- 61
2019-10-27 20:00:00 18.5 3 Oeste 13 Oeste 0 -- -- 53
2019-10-27 19:00:00 20 4 Noroeste 8 Oeste 0 -- -- 47
2019-10-27 18:00:00 22.7 6 Oeste 8 Oeste 0 -- -- 41
2019-10-27 17:00:00 23.8 7 Sudoeste 16 Sudoeste 0 -- -- 35
2019-10-27 16:00:00 25.7 10 Sudoeste 17 Sudoeste 0 -- -- 31
2019-10-27 15:00:00 25.5 8 Sudoeste 17 Sudoeste 0 -- -- 30
2019-10-27 14:00:00 24.4 8 Sur 21 Sudoeste 0 -- -- 31
2019-10-27 13:00:00 24.4 6 Sudoeste 15 Sudeste 0 -- -- 32
2019-10-27 12:00:00 22.3 9 Sudeste 15 Sudeste 0 -- -- 35
2019-10-27 11:00:00 19.6 9 Sudeste 14 Sudeste 0 -- -- 45
2019-10-27 10:00:00 17.4 7 Sudeste 16 Sudeste 0 -- -- 50
2019-10-27 09:00:00 15.8 11 Sudeste 15 Sudeste 0 -- -- 56
2019-10-27 08:00:00 9.6 6 Sur 9 Sudeste 0 -- -- 76
2019-10-27 07:00:00 11.1 0 Calma 9 Sudeste 0 -- -- 66
2019-10-27 06:00:00 10.9 7 Sudeste 10 Sudeste 0 -- -- 66
2019-10-27 05:00:00 10.3 6 Sur 10 Sudeste 0 -- -- 71
2019-10-27 04:00:00 10.6 6 Sudeste 8 Sudeste 0 -- -- 72
2019-10-27 03:00:00 13.1 3 Noroeste 8 Noroeste 0 -- -- 62
2019-10-27 02:00:00 13.1 4 Oeste 5 Oeste 0 -- -- 60
2019-10-27 01:00:00 13.9 0 Calma 0 Calma 0 -- -- 57
2019-10-27 00:00:00 14 0 Calma 6 Sudeste 0 -- -- 56
2019-10-26 23:00:00 15.1 4 Sudeste 8 Sudeste 0 -- -- 57
2019-10-26 22:00:00 15.4 0 Calma 2 Noroeste 0 -- -- 56
2019-10-26 21:00:00 15.8 0 Calma 8 Noroeste 0 -- -- 60
2019-10-26 20:00:00 18.7 6 Noroeste 8 Noroeste 0 -- -- 51
2019-10-26 19:00:00 24.6 4 Oeste 14 Oeste 0 -- -- 32
2019-10-26 18:00:00 25.5 7 Sudoeste 17 Sudoeste 0 -- -- 28
2019-10-26 17:00:00 25.8 10 Sudoeste 24 Oeste 0 -- -- 25
2019-10-26 16:00:00 25.5 11 Sur 20 Sur 0 -- -- 27
2019-10-26 15:00:00 24.8 8 Sur 20 Sur 0 -- -- 33
2019-10-26 14:00:00 23.8 12 Sur 24 Sudeste 0 -- -- 38
2019-10-26 13:00:00 22.2 13 Sudeste 23 Sudeste 0 -- -- 43
2019-10-26 12:00:00 19.9 14 Sudeste 23 Sudeste 0 -- -- 51
2019-10-26 11:00:00 18 15 Sudeste 23 Sudeste 0 -- -- 57
2019-10-26 10:00:00 15.4 12 Sudeste 16 Sudeste 0 -- -- 68
2019-10-26 09:00:00 12.2 9 Sudeste 12 Sudeste 0 -- -- 76
2019-10-26 08:00:00 11 7 Sur 11 Sudeste 0 -- -- 81
2019-10-26 07:00:00 11.8 9 Sur 11 Sur 0 -- -- 77
2019-10-26 06:00:00 10.5 5 Sur 9 Sudeste 0 -- -- 81
2019-10-26 05:00:00 10.9 4 Sudeste 10 Sudeste 0 -- -- 78
2019-10-26 04:00:00 10.6 8 Sudeste 10 Sudeste 0 -- -- 80
2019-10-26 03:00:00 11.4 8 Sudeste 10 Sudeste 0 -- -- 77
2019-10-26 02:00:00 13.6 7 Sudeste 11 Sudeste 0 -- -- 69
2019-10-26 01:00:00 14.8 9 Sudeste 12 Sudeste 0 -- -- 64
2019-10-26 00:00:00 16.2 10 Sudeste 13 Sudeste 0 -- -- 60
2019-10-25 23:00:00 17 10 Sudeste 15 Sudeste 0 -- -- 59
2019-10-25 22:00:00 16.4 6 Sudeste 9 Sur 0 -- -- 62
2019-10-25 21:00:00 16.9 0 Calma 4 Sudeste 0 -- -- 59
2019-10-25 20:00:00 19.3 0 Calma 11 Sudeste 0 -- -- 55
2019-10-25 19:00:00 22.9 9 Sudeste 23 Sudeste 0 -- -- 43
2019-10-25 18:00:00 24.1 14 Sudeste 26 Sudeste 0 -- -- 39
2019-10-25 17:00:00 24.5 15 Sudeste 25 Sur 0 -- -- 37
2019-10-25 16:00:00 24.2 14 Sudeste 27 Sudeste 0 -- -- 38
2019-10-25 15:00:00 23.6 14 Este 25 Este 0 -- -- 41
2019-10-25 14:00:00 22.6 12 Sudeste 24 Sudeste 0 -- -- 43
2019-10-25 13:00:00 20.7 14 Sudeste 24 Sudeste 0 -- -- 47
2019-10-25 12:00:00 18.2 17 Sudeste 23 Este 0 -- -- 57
2019-10-25 11:00:00 15.5 16 Sudeste 24 Este 0 -- -- 67
2019-10-25 10:00:00 12.7 7 Sudeste 12 Sudeste 0 -- -- 77
2019-10-25 09:00:00 8.7 6 Sudeste 8 Sudeste 0 -- -- 87
2019-10-25 08:00:00 8.8 6 Sudeste 10 Sudeste 0 -- -- 91
2019-10-25 07:00:00 8 5 Sudeste 10 Sudeste 0 -- -- 93
2019-10-25 06:00:00 8.1 0 Calma 5 Sudeste 0 -- -- 97
2019-10-25 05:00:00 8.3 5 Sur 6 Sudeste 0 -- -- 92
2019-10-25 04:00:00 7.9 4 Sudeste 8 Sudeste 0 -- -- 97
2019-10-25 03:00:00 8.4 5 Sudeste 6 Sudeste 0 -- -- 95
2019-10-25 02:00:00 8.9 0 Calma -- -- 0 -- -- 94
2019-10-25 01:00:00 9.3 0 Calma -- -- 0 -- -- 93
2019-10-25 00:00:00 9.3 0 Calma 3 Sudeste 0 -- -- 94
2019-10-24 23:00:00 10.7 0 Calma 5 Oeste 0 -- -- 90
2019-10-24 22:00:00 11.8 0 Calma 4 Oeste 0 -- -- 85
2019-10-24 21:00:00 13.1 0 Calma 4 Oeste 0 -- -- 80
2019-10-24 20:00:00 15.8 4 Sudoeste 10 Oeste 0 -- -- 72
2019-10-24 19:00:00 18.9 9 Oeste 13 Oeste 0 -- -- 56
2019-10-24 18:00:00 19.6 8 Noroeste 17 Noroeste 0 -- -- 54
2019-10-24 17:00:00 19.5 5 Oeste 21 Noroeste 0 -- -- 54
2019-10-24 16:00:00 18.7 8 Noroeste 23 Oeste 0 -- -- 54
2019-10-24 15:00:00 17.9 10 Oeste 21 Oeste 0 -- -- 57
2019-10-24 14:00:00 16.7 8 Noroeste 18 Noroeste 0 -- -- 60
2019-10-24 13:00:00 15.4 7 Oeste 13 Oeste 0 -- -- 67
2019-10-24 12:00:00 14.2 9 Oeste 17 Noroeste 0 -- -- 76
2019-10-24 11:00:00 12.2 11 Oeste 17 Oeste 0 -- -- 85
2019-10-24 10:00:00 10 9 Oeste 13 Noroeste 0 -- -- 93
2019-10-24 09:00:00 7.1 8 Oeste 10 Oeste 0 -- -- 99
2019-10-24 08:00:00 7.1 0 Calma 11 Oeste 0 -- -- 98
2019-10-24 07:00:00 8.1 5 Noroeste 18 Noroeste 0 -- -- 94
2019-10-24 06:00:00 7.1 5 Oeste 11 Noroeste 0 -- -- 96
2019-10-24 05:00:00 7.7 5 Oeste 13 Oeste 0 -- -- 94
2019-10-24 04:00:00 8.3 12 Noroeste 16 Noroeste 0 -- -- 94
2019-10-24 03:00:00 8.5 13 Oeste 17 Noroeste 0 -- -- 94
2019-10-24 02:00:00 9.6 13 Noroeste 17 Noroeste 0 -- -- 90
2019-10-24 01:00:00 10.3 10 Noroeste 16 Oeste 0 -- -- 92
2019-10-24 00:00:00 10.9 5 Oeste 10 Noroeste 0 -- -- 95
2019-10-23 23:00:00 10.9 10 Oeste 15 Noroeste 0 -- -- 95
2019-10-23 22:00:00 10.8 11 Noroeste 21 Noroeste 0 -- -- 95
2019-10-23 21:00:00 10.6 12 Noroeste 19 Noroeste 0 -- -- 96
2019-10-23 20:00:00 10.8 12 Norte 19 Norte 0 -- -- 92
2019-10-23 19:00:00 11.2 12 Norte 22 Norte 0.6 -- -- 95
2019-10-23 18:00:00 12.1 11 Noroeste 21 Noroeste 0.6 -- -- 92
2019-10-23 17:00:00 12.6 15 Noroeste 25 Noroeste 0 -- -- 86
2019-10-23 16:00:00 13.1 17 Noroeste 28 Noroeste 0 -- -- 78
2019-10-23 15:00:00 12.3 16 Noroeste 29 Noroeste 0 -- -- 84
2019-10-23 14:00:00 11.6 15 Noroeste 24 Noroeste 0.4 -- -- 91
2019-10-23 13:00:00 10.8 12 Noroeste 18 Noroeste 0.6 -- -- 95
2019-10-23 12:00:00 10.5 8 Oeste 12 Oeste 0.2 -- -- 94
2019-10-23 11:00:00 10 10 Oeste 14 Oeste 0 -- -- 93
2019-10-23 10:00:00 9.1 9 Oeste 18 Sudoeste 0 -- -- 95
2019-10-23 09:00:00 9.4 3 Noroeste 14 Oeste 0 -- -- 91
2019-10-23 08:00:00 9.4 8 Oeste 15 Oeste 0 -- -- 93
2019-10-23 07:00:00 10.6 15 Noroeste 22 Noroeste 0 -- -- 80
2019-10-23 06:00:00 10.1 12 Norte 27 Noroeste 0.2 -- -- 85
2019-10-23 05:00:00 9.4 14 Noroeste 26 Norte 0.2 -- -- 90
2019-10-23 04:00:00 10.2 15 Noroeste 26 Noroeste 0 -- -- 79
2019-10-23 03:00:00 9.9 12 Noroeste 21 Noroeste 0 -- -- 75
2019-10-23 02:00:00 9.9 11 Noroeste 21 Noroeste 0 -- -- 74
2019-10-23 01:00:00 10.5 9 Noroeste 19 Noroeste 0 -- -- 69
2019-10-23 00:00:00 10.7 13 Noroeste 26 Norte 0 -- -- 70
2019-10-22 23:00:00 11.3 13 Norte 19 Noroeste 0 -- -- 71
2019-10-22 22:00:00 12.5 11 Norte 20 Norte 0 -- -- 65
2019-10-22 21:00:00 13.2 5 Norte 17 Noroeste 0 -- -- 58
2019-10-22 20:00:00 14.6 11 Norte 34 Norte 0 -- -- 53
2019-10-22 19:00:00 17 14 Nordeste 24 Norte 0 -- -- 41
2019-10-22 18:00:00 18.1 12 Nordeste 25 Nordeste 0 -- -- 36
2019-10-22 17:00:00 18.4 15 Norte 31 Norte 0 -- -- 38
2019-10-22 16:00:00 18.6 15 Norte 30 Noroeste 0 -- -- 38
2019-10-22 15:00:00 18.2 17 Norte 28 Nordeste 0 -- -- 40
2019-10-22 14:00:00 17.8 18 Nordeste 29 Nordeste 0 -- -- 44
2019-10-22 13:00:00 16.3 16 Nordeste 27 Nordeste 0 -- -- 53
2019-10-22 12:00:00 13.9 18 Nordeste 25 Norte 0 -- -- 63
2019-10-22 11:00:00 12.1 15 Norte 22 Norte 0 -- -- 72
2019-10-22 10:00:00 9.6 14 Norte 21 Norte 0 -- -- 81
2019-10-22 09:00:00 8.7 12 Nordeste 19 Norte 0 -- -- 85
2019-10-22 08:00:00 8.9 13 Norte 15 Norte 0 -- -- 88
2019-10-22 07:00:00 10.6 9 Sudeste 23 Sudoeste 0 -- -- 75
2019-10-22 06:00:00 9.5 6 Este 14 Norte 0 -- -- 83
2019-10-22 05:00:00 9 10 Norte 14 Norte 0 -- -- 83
2019-10-22 04:00:00 8.1 3 Norte 9 Norte 0 -- -- 86
2019-10-22 03:00:00 8.3 0 Calma 12 Sur 0 -- -- 87
2019-10-22 02:00:00 9.7 0 Calma 4 Sur 0 -- -- 81
2019-10-22 01:00:00 10.7 0 Calma 10 Nordeste 0 -- -- 71
2019-10-22 00:00:00 11.1 6 Norte 10 Nordeste 0 -- -- 69
2019-10-21 23:00:00 9.6 3 Norte 6 Norte 0 -- -- 84
2019-10-21 22:00:00 10 3 Norte 6 Noroeste 0 -- -- 79
2019-10-21 21:00:00 10.9 2 Norte 5 Norte 0 -- -- 78
2019-10-21 20:00:00 12.9 5 Nordeste 13 Norte 0 -- -- 65
2019-10-21 19:00:00 15.6 6 Norte 14 Nordeste 0 -- -- 54
2019-10-21 18:00:00 15.5 10 Norte 18 Nordeste 0 -- -- 56
2019-10-21 17:00:00 16.6 10 Norte 19 Nordeste 0 -- -- 55
2019-10-21 16:00:00 18.6 9 Oeste 17 Sur 0 -- -- 43
2019-10-21 15:00:00 17.9 7 Sur 18 Sudeste 0 -- -- 49
2019-10-21 14:00:00 16.7 5 Este 14 Sur 0 -- -- 55
2019-10-21 13:00:00 15.6 6 Sur 15 Sur 0 -- -- 61
2019-10-21 12:00:00 14.5 4 Este 9 Sudeste 0 -- -- 65
2019-10-21 11:00:00 12.6 6 Sudeste 8 Sudeste 0 -- -- 76
2019-10-21 10:00:00 9.3 0 Calma 6 Noroeste 0 -- -- 89
2019-10-21 09:00:00 5.7 5 Noroeste 8 Oeste 0 -- -- 98
2019-10-21 08:00:00 6.1 0 Calma 6 Oeste 0 -- -- 97
2019-10-21 07:00:00 5.9 0 Calma 8 Oeste 0 -- -- 97
2019-10-21 06:00:00 6.3 6 Oeste 7 Oeste 0 -- -- 96
2019-10-21 05:00:00 6.9 5 Noroeste 9 Noroeste 0 -- -- 97
2019-10-21 04:00:00 7.8 5 Oeste 8 Oeste 0 -- -- 91
2019-10-21 03:00:00 7.8 6 Noroeste 9 Noroeste 0 -- -- 93
2019-10-21 02:00:00 8.7 5 Noroeste 9 Oeste 0 -- -- 89
2019-10-21 01:00:00 9.8 4 Oeste 11 Norte 0 -- -- 84
2019-10-21 00:00:00 10.4 8 Norte 13 Norte 0 -- -- 80
2019-10-20 23:00:00 11.2 9 Noroeste 17 Noroeste 0 -- -- 80
2019-10-20 22:00:00 10.8 9 Noroeste 16 Noroeste 0 -- -- 80
2019-10-20 21:00:00 11.9 5 Noroeste 12 Noroeste 0 -- -- 83
2019-10-20 20:00:00 12.5 9 Noroeste 10 Noroeste 0 -- -- 81
2019-10-20 19:00:00 14.2 9 Oeste 15 Oeste 0 -- -- 71
2019-10-20 18:00:00 13.7 0 Calma 32 Oeste 0 -- -- 71
2019-10-20 17:00:00 16.6 17 Oeste 24 Noroeste 0 -- -- 53
2019-10-20 16:00:00 17 16 Noroeste 28 Noroeste 0 -- -- 55
2019-10-20 15:00:00 15.7 13 Noroeste 24 Noroeste 0 -- -- 59
2019-10-20 14:00:00 15.5 15 Noroeste 26 Norte 0 -- -- 59
2019-10-20 13:00:00 14.7 15 Noroeste 27 Noroeste 0 -- -- 64
2019-10-20 12:00:00 13.5 14 Noroeste 26 Noroeste 0 -- -- 74
2019-10-20 11:00:00 11.7 16 Noroeste 24 Noroeste 0 -- -- 83
2019-10-20 10:00:00 10 10 Oeste 18 Oeste 0 -- -- 93
2019-10-20 09:00:00 8.4 7 Oeste 25 Oeste 0 -- -- 99
2019-10-20 08:00:00 8.8 14 Oeste 25 Oeste 0 -- -- 99
2019-10-20 07:00:00 9 18 Oeste 30 Sudoeste 0 -- -- 98
2019-10-20 06:00:00 9 18 Oeste 27 Oeste 0 -- -- 97
2019-10-20 05:00:00 9.2 14 Oeste 25 Oeste 0 -- -- 97
2019-10-20 04:00:00 9.7 17 Oeste 30 Oeste 0 -- -- 95
2019-10-20 03:00:00 10.7 18 Oeste 24 Oeste 0 -- -- 95
2019-10-20 02:00:00 10.6 12 Oeste 20 Oeste 0 -- -- 97
2019-10-20 01:00:00 11.2 12 Oeste 19 Oeste 0 -- -- 97
2019-10-20 00:00:00 11.5 8 Oeste 23 Oeste 0 -- -- 97
2019-10-19 23:00:00 12.2 11 Oeste 25 Oeste 0 -- -- 93
2019-10-19 22:00:00 12.8 13 Oeste 28 Oeste 0 -- -- 93
2019-10-19 21:00:00 14.5 19 Oeste 34 Oeste 0 -- -- 93
2019-10-19 20:00:00 15.4 25 Sudoeste 46 Sudoeste 0 -- -- 97
2019-10-19 19:00:00 15.2 18 Sudoeste 51 Sudoeste 5 -- -- 97
2019-10-19 18:00:00 18.8 30 Sudoeste 51 Oeste 0.2 -- -- 73
2019-10-19 17:00:00 18.7 23 Sur 46 Sudoeste 0 -- -- 68
2019-10-19 16:00:00 18.1 19 Sur 32 Sur 0 -- -- 79
2019-10-19 15:00:00 15.8 19 Sudoeste 31 Sudoeste 0.2 -- -- 93
2019-10-19 14:00:00 14.1 12 Sur 20 Sudeste 1.2 -- -- 99
2019-10-19 13:00:00 13.5 10 Sur 22 Sur 1 -- -- 99
2019-10-19 12:00:00 13.5 12 Sur 24 Sur 0.2 -- -- 94
2019-10-19 11:00:00 14.3 13 Sur 22 Sur 0 -- -- 81
2019-10-19 10:00:00 13.1 14 Sur 20 Sur 0 -- -- 85
2019-10-19 09:00:00 11.4 7 Sur 16 Sur 0 -- -- 96
2019-10-19 08:00:00 10.8 8 Sur 14 Sur 0 -- -- 99
2019-10-19 07:00:00 10.2 7 Sur 9 Sudeste 0 -- -- 98
2019-10-19 06:00:00 10.4 3 Sur 6 Sudoeste 0 -- -- 98
2019-10-19 05:00:00 11.2 0 Calma 12 Oeste 0 -- -- 93
2019-10-19 04:00:00 12.7 8 Oeste 13 Sudoeste 0 -- -- 89
2019-10-19 03:00:00 13.3 7 Sudoeste 13 Sudoeste 0 -- -- 85
2019-10-19 02:00:00 13.9 10 Oeste 15 Oeste 0 -- -- 83
2019-10-19 01:00:00 13.6 8 Sudoeste 14 Oeste 0 -- -- 80
2019-10-19 00:00:00 14.8 7 Oeste 12 Oeste 0 -- -- 71
2019-10-18 23:00:00 14.9 5 Noroeste 16 Noroeste 0 -- -- 72
2019-10-18 22:00:00 15.7 11 Noroeste 18 Noroeste 0 -- -- 69
2019-10-18 21:00:00 16.1 9 Noroeste 24 Noroeste 0 -- -- 68
2019-10-18 20:00:00 17 11 Oeste 24 Oeste 0 -- -- 64
2019-10-18 19:00:00 18.4 19 Oeste 29 Oeste 0 -- -- 59
2019-10-18 18:00:00 19.5 19 Oeste 31 Oeste 0 -- -- 55
2019-10-18 17:00:00 20.4 20 Oeste 31 Oeste 0 -- -- 54
2019-10-18 16:00:00 20.5 17 Oeste 29 Oeste 0 -- -- 52
2019-10-18 15:00:00 19.7 18 Oeste 30 Oeste 0 -- -- 57
2019-10-18 14:00:00 19.2 21 Oeste 32 Oeste 0 -- -- 62
2019-10-18 13:00:00 17.7 22 Oeste 31 Oeste 0 -- -- 77
2019-10-18 12:00:00 17.1 17 Sudoeste 27 Oeste 0 -- -- 84
2019-10-18 11:00:00 17.2 13 Oeste 22 Oeste 0 -- -- 91
2019-10-18 10:00:00 16.6 16 Oeste 27 Sudoeste 0 -- -- 98
2019-10-18 09:00:00 16.4 14 Sudoeste 27 Sudoeste 0.2 -- -- 100
2019-10-18 08:00:00 16.3 8 Sudoeste 20 Sur 0 -- -- 100
2019-10-18 07:00:00 16.2 9 Sur 22 Sur 0.4 -- -- 100
2019-10-18 06:00:00 16.3 13 Sur 27 Sur 0 -- -- 99
2019-10-18 05:00:00 16.4 11 Sudoeste 30 Sudoeste 0 -- -- 99
2019-10-18 04:00:00 16.6 17 Sudoeste 31 Sudoeste 0 -- -- 98
2019-10-18 03:00:00 16.7 20 Sudoeste 32 Oeste 0 -- -- 99
2019-10-18 02:00:00 16.9 15 Sudoeste 28 Oeste 0 -- -- 98
2019-10-18 01:00:00 17 17 Sudoeste 28 Sudoeste 0 -- -- 99
2019-10-18 00:00:00 16.9 15 Sudoeste 24 Sudoeste 0.2 -- -- 100
2019-10-17 23:00:00 17 16 Sudoeste 27 Sudoeste 0.8 -- -- 100
2019-10-17 22:00:00 17 15 Sudoeste 26 Sudoeste 0 -- -- 100
2019-10-17 21:00:00 16.9 15 Sudoeste 27 Sur 0 -- -- 99
2019-10-17 20:00:00 17.1 12 Sudoeste 24 Sudoeste 0.4 -- -- 97
2019-10-17 19:00:00 17.7 7 Sudoeste 14 Sur 0 -- -- 92
2019-10-17 18:00:00 17.2 10 Sudoeste 22 Sudoeste 0 -- -- 96
2019-10-17 17:00:00 17 14 Sudoeste 27 Sudoeste 0 -- -- 96
2019-10-17 16:00:00 16.9 9 Sur 15 Sudoeste 0 -- -- 96
2019-10-17 15:00:00 17 12 Sur 19 Sur 0 -- -- 93
2019-10-17 14:00:00 16 12 Sur 22 Sur 0 -- -- 95
2019-10-17 13:00:00 14.5 16 Sur 21 Sur 0 -- -- 99
2019-10-17 12:00:00 13.6 13 Sur 19 Sur 0.2 -- -- 100
2019-10-17 11:00:00 12.7 12 Sur 20 Sudeste 0.2 -- -- 99
2019-10-17 10:00:00 12.4 12 Sudeste 17 Sur 0.6 -- -- 97
2019-10-17 09:00:00 12.8 7 Sur 19 Sudoeste 0 -- -- 92
2019-10-17 08:00:00 12.7 14 Sur 24 Sudoeste 0 -- -- 92
2019-10-17 07:00:00 12.9 16 Sudoeste 25 Sudoeste 0 -- -- 92
2019-10-17 06:00:00 12.8 13 Sudoeste 19 Sudoeste 0 -- -- 90
2019-10-17 05:00:00 11.6 4 Sudeste 14 Sur 0 -- -- 93
2019-10-17 04:00:00 11.1 7 Sur 11 Sur 0 -- -- 97
2019-10-17 03:00:00 10.2 0 Calma 5 Sudeste 0 -- -- 95
2019-10-17 02:00:00 11.8 3 Oeste 10 Noroeste 0 -- -- 88
2019-10-17 01:00:00 12.6 5 Oeste 10 Noroeste 0 -- -- 85
2019-10-17 00:00:00 13 5 Noroeste 15 Sudoeste 0 -- -- 78
2019-10-16 23:00:00 11.9 0 Calma 3 Sur 0 -- -- 85
2019-10-16 22:00:00 12.9 0 Calma 9 Sudoeste 0 -- -- 80
2019-10-16 21:00:00 15.8 7 Sudoeste 15 Sudoeste 0 -- -- 67
2019-10-16 20:00:00 16.3 6 Sudoeste 15 Oeste 0 -- -- 66
2019-10-16 19:00:00 18.8 10 Sudoeste 23 Oeste 0 -- -- 55
2019-10-16 18:00:00 19.6 12 Oeste 21 Sudoeste 0 -- -- 48
2019-10-16 17:00:00 19.2 7 Sudoeste 22 Oeste 0 -- -- 52
2019-10-16 16:00:00 19.3 9 Sudoeste 31 Oeste 0 -- -- 52
2019-10-16 15:00:00 18.5 5 Noroeste 22 Sudoeste 0 -- -- 55
2019-10-16 14:00:00 17.5 13 Sudoeste 20 Sudoeste 0 -- -- 58
2019-10-16 13:00:00 17.1 9 Sur 19 Sudeste 0 -- -- 61
2019-10-16 12:00:00 16.5 8 Sur 13 Sur 0 -- -- 67
2019-10-16 11:00:00 14.6 6 Sudeste 11 Sudeste 0 -- -- 76
2019-10-16 10:00:00 11.4 3 Sudeste 5 Sudeste 0 -- -- 92
2019-10-16 09:00:00 6.9 0 Calma 3 Sur 0 -- -- 100
2019-10-16 08:00:00 6.8 2 Este 3 Este 0 -- -- 98
2019-10-16 07:00:00 7.1 0 Calma 4 Oeste 0 -- -- 96
2019-10-16 06:00:00 8.5 4 Oeste 5 Oeste 0 -- -- 91
2019-10-16 05:00:00 8.3 2 Noroeste 3 Noroeste 0 -- -- 93
2019-10-16 04:00:00 8.3 0 Calma 3 Oeste 0 -- -- 93
2019-10-16 03:00:00 8.8 0 Calma 3 Sudeste 0 -- -- 91
2019-10-16 02:00:00 9.7 3 Este 12 Sudoeste 0 -- -- 85
2019-10-16 01:00:00 9 0 Calma 5 Sudeste 0 -- -- 89
2019-10-16 00:00:00 9.3 0 Calma 3 Sudeste 0 -- -- 91
2019-10-15 23:00:00 10.3 0 Calma 3 Oeste 0 -- -- 84
2019-10-15 22:00:00 11.5 2 Noroeste 4 Oeste 0 -- -- 79
2019-10-15 21:00:00 12.7 2 Noroeste 6 Oeste 0 -- -- 77
2019-10-15 20:00:00 15.2 4 Oeste 14 Oeste 0 -- -- 64
2019-10-15 19:00:00 17.2 9 Oeste 21 Oeste 0 -- -- 56
2019-10-15 18:00:00 17.7 14 Oeste 23 Oeste 0 -- -- 55
2019-10-15 17:00:00 17 8 Noroeste 17 Noroeste 0 -- -- 55
2019-10-15 16:00:00 17.9 10 Noroeste 18 Sudoeste 0 -- -- 49
2019-10-15 15:00:00 17.8 10 Oeste 18 Oeste 0 -- -- 53
2019-10-15 14:00:00 17 6 Oeste 17 Noroeste 0 -- -- 59
2019-10-15 13:00:00 15.9 6 Noroeste 17 Oeste 0 -- -- 59
2019-10-15 12:00:00 14.2 6 Noroeste 13 Norte 0 -- -- 70
2019-10-15 11:00:00 12.8 8 Oeste 13 Oeste 0 -- -- 83
2019-10-15 10:00:00 10.6 3 Oeste 5 Oeste 0 -- -- 89
2019-10-15 09:00:00 7.6 0 Calma 5 Oeste 0 -- -- 98
2019-10-15 08:00:00 6.7 4 Oeste 6 Oeste 0 -- -- 96
2019-10-15 07:00:00 7 4 Oeste 6 Oeste 0 -- -- 97
2019-10-15 06:00:00 6.8 3 Noroeste 5 Oeste 0 -- -- 97
2019-10-15 05:00:00 6.7 4 Oeste 6 Noroeste 0 -- -- 96
2019-10-15 04:00:00 7.6 0 Calma 13 Noroeste 0 -- -- 93
2019-10-15 03:00:00 8.4 9 Noroeste 15 Noroeste 0 -- -- 90
2019-10-15 02:00:00 9 13 Noroeste 22 Noroeste 0 -- -- 88
2019-10-15 01:00:00 10.8 16 Noroeste 24 Norte 0 -- -- 76
2019-10-15 00:00:00 9.6 7 Noroeste 17 Noroeste 0 -- -- 85
2019-10-14 23:00:00 11 13 Noroeste 18 Noroeste 0 -- -- 78
2019-10-14 22:00:00 11.3 5 Oeste 19 Noroeste 0 -- -- 82
2019-10-14 21:00:00 11.9 5 Noroeste 21 Noroeste 0 -- -- 83
2019-10-14 20:00:00 13.6 7 Noroeste 19 Oeste 0 -- -- 90
2019-10-14 19:00:00 14.5 15 Oeste 25 Oeste 0 -- -- 87
2019-10-14 18:00:00 13.4 11 Sudoeste 26 Oeste 0.6 -- -- 90
2019-10-14 17:00:00 13.9 14 Oeste 23 Oeste 0.2 -- -- 90
2019-10-14 16:00:00 13.5 11 Oeste 27 Oeste 2 -- -- 95
2019-10-14 15:00:00 13.5 18 Noroeste 41 Noroeste 8.6 -- -- 96
2019-10-14 14:00:00 17.5 21 Sudoeste 39 Sudoeste 0 -- -- 66
2019-10-14 13:00:00 15.9 24 Sudoeste 36 Sudoeste 0 -- -- 72
2019-10-14 12:00:00 15.4 15 Sudoeste 30 Sudoeste 0 -- -- 80
2019-10-14 11:00:00 14.1 17 Oeste 27 Oeste 0 -- -- 87
2019-10-14 10:00:00 13.3 17 Sudoeste 32 Oeste 0 -- -- 93
2019-10-14 09:00:00 13 16 Oeste 29 Oeste 0.2 -- -- 96
2019-10-14 08:00:00 13.6 17 Oeste 36 Sudoeste 0.2 -- -- 94
2019-10-14 07:00:00 15.3 14 Sudoeste 38 Sudoeste 0.2 -- -- 94
2019-10-14 06:00:00 15.8 17 Sudoeste 33 Sur 0.4 -- -- 89
2019-10-14 05:00:00 15.4 16 Sudoeste 29 Sudoeste 0 -- -- 85
2019-10-14 04:00:00 16 14 Oeste 21 Sudoeste 0 -- -- 81
2019-10-14 03:00:00 15.5 8 Oeste 13 Oeste 0 -- -- 79
2019-10-14 02:00:00 16.7 7 Oeste 13 Oeste 0 -- -- 75
2019-10-14 01:00:00 18.8 12 Oeste 30 Sudoeste 0 -- -- 63
2019-10-14 00:00:00 19.8 8 Sur 17 Sur 0 -- -- 57